Time;durP1;ratioP1;P1;durP2;ratioP2;P2;SDS_P1;SDS_P2;PMS_P1;PMS_P2;Temp;Humidity;BMP_temperature;BMP_pressure;BME280_temperature;BME280_humidity;BME280_pressure;Samples;Min_cycle;Max_cycle;Signal;HPM_P1;HPM_P2
2021/12/07 00:02:00;;;;;;;20.58;10.35;;;3.40;99.90;;;;;;5032957;28;20051;-85
2021/12/07 00:04:25;;;;;;;20.83;10.63;;;4.50;99.90;;;;;;5048162;28;20049;-84
2021/12/07 00:06:51;;;;;;;21.40;11.32;;;3.00;99.90;;;;;;5067159;28;20056;-84
2021/12/07 00:09:18;;;;;;;19.30;10.63;;;2.50;99.90;;;;;;5066306;28;20048;-84
2021/12/07 00:11:46;;;;;;;20.83;10.98;;;3.50;99.90;;;;;;5048660;28;20085;-85
2021/12/07 00:14:13;;;;;;;19.52;10.45;;;2.50;99.90;;;;;;5032477;28;20056;-85
2021/12/07 00:16:44;;;;;;;18.58;10.85;;;2.50;99.90;;;;;;5047459;28;20519;-84
2021/12/07 00:19:11;;;;;;;15.68;9.35;;;4.80;99.90;;;;;;5048940;28;20053;-85
2021/12/07 00:21:39;;;;;;;19.65;10.13;;;3.50;99.90;;;;;;5065541;28;20048;-84
2021/12/07 00:24:06;;;;;;;16.42;10.15;;;2.50;99.90;;;;;;5066755;28;20088;-84
2021/12/07 00:26:31;;;;;;;22.02;11.68;;;2.40;99.90;;;;;;5066077;28;20463;-84
2021/12/07 00:28:59;;;;;;;18.20;10.38;;;2.40;99.90;;;;;;5047883;28;20135;-84
2021/12/07 00:31:31;;;;;;;18.13;10.85;;;2.50;99.90;;;;;;5066874;28;20064;-84
2021/12/07 00:34:15;;;;;;;17.70;10.23;;;2.40;99.90;;;;;;5046999;28;20051;-84
2021/12/07 00:36:44;;;;;;;;;;;4.40;99.90;;;;;;5048757;28;20056;-83
2021/12/07 00:39:12;;;;;;;18.85;9.55;;;2.50;99.90;;;;;;5047390;28;19920;-84
2021/12/07 00:41:39;;;;;;;18.90;9.25;;;2.40;99.90;;;;;;5047984;28;20059;-84
2021/12/07 00:44:06;;;;;;;18.05;10.38;;;2.40;99.90;;;;;;5048392;28;20103;-84
2021/12/07 00:46:32;;;;;;;16.58;9.93;;;2.40;99.90;;;;;;5064999;28;20071;-83
2021/12/07 00:48:58;;;;;;;17.77;10.30;;;2.30;99.90;;;;;;5066125;28;20520;-84
2021/12/07 00:51:24;;;;;;;18.95;10.15;;;2.30;99.90;;;;;;5030417;28;20037;-83
2021/12/07 00:53:50;;;;;;;18.48;9.15;;;2.30;99.90;;;;;;5066010;28;20072;-84
2021/12/07 00:56:16;;;;;;;19.33;10.68;;;2.20;99.90;;;;;;5047970;28;20044;-84
2021/12/07 00:58:42;;;;;;;17.02;10.20;;;2.20;99.90;;;;;;5047330;28;20041;-84
2021/12/07 01:01:10;;;;;;;19.33;10.63;;;2.20;99.90;;;;;;5047535;28;20045;-84
2021/12/07 01:03:36;;;;;;;16.38;9.02;;;2.20;99.90;;;;;;5064848;28;20068;-85
2021/12/07 01:06:15;;;;;;;17.77;9.30;;;2.10;99.90;;;;;;5065661;28;20480;-84
2021/12/07 01:25:39;;;;;;;15.27;9.45;;;1.70;99.90;;;;;;5032160;28;20087;-85
2021/12/07 01:28:17;;;;;;;17.95;10.02;;;1.70;99.90;;;;;;5032009;28;20048;-85
2021/12/07 01:38:30;;;;;;;15.10;9.27;;;1.50;99.90;;;;;;5047985;28;20059;-85
2021/12/07 02:01:47;;;;;;;16.15;8.60;;;1.50;99.90;;;;;;5065564;28;20094;-85
2021/12/07 02:04:13;;;;;;;14.27;8.95;;;1.50;99.90;;;;;;5013350;28;20045;-85
2021/12/07 02:06:39;;;;;;;14.90;8.65;;;1.50;99.90;;;;;;5030695;28;20044;-85
2021/12/07 02:09:07;;;;;;;14.02;9.55;;;2.50;99.90;;;;;;5029673;28;20084;-85
2021/12/07 02:11:33;;;;;;;14.60;9.02;;;1.50;99.90;;;;;;5046521;28;20330;-85
2021/12/07 02:16:29;;;;;;;12.40;7.32;;;1.50;99.90;;;;;;5045683;28;20098;-85
2021/12/07 02:18:55;;;;;;;15.48;8.55;;;1.50;99.90;;;;;;5034420;28;20523;-84
2021/12/07 02:21:24;;;;;;;13.88;8.80;;;1.50;99.90;;;;;;5016812;28;20045;-84
2021/12/07 02:23:51;;;;;;;12.90;7.85;;;1.50;99.90;;;;;;5050761;28;20171;-86
2021/12/07 02:26:18;;;;;;;12.95;8.88;;;1.50;99.90;;;;;;5050578;28;20123;-86
2021/12/07 02:28:45;;;;;;;12.13;7.60;;;1.50;99.90;;;;;;5049977;28;20134;-86
2021/12/07 02:31:11;;;;;;;15.25;8.73;;;1.50;99.90;;;;;;5069101;28;20038;-85
2021/12/07 02:33:39;;;;;;;15.25;8.15;;;0.90;99.90;;;;;;5049529;28;20094;-85
2021/12/07 02:36:06;;;;;;;12.98;8.63;;;2.70;99.90;;;;;;5034388;28;20040;-85
2021/12/07 02:41:31;;;;;;;13.90;8.52;;;1.90;99.90;;;;;;5052741;28;20440;-85
2021/12/07 02:43:57;;;;;;;14.45;8.70;;;1.60;99.90;;;;;;5050519;28;20044;-84
2021/12/07 02:46:23;;;;;;;16.30;9.50;;;1.60;99.90;;;;;;5049277;28;20587;-85
2021/12/07 02:48:48;;;;;;;15.23;9.43;;;1.70;99.90;;;;;;5050613;28;20045;-84
2021/12/07 02:51:14;;;;;;;13.52;8.07;;;1.60;99.90;;;;;;5049769;28;20037;-85
2021/12/07 02:53:40;;;;;;;15.82;9.00;;;1.70;99.90;;;;;;5033601;28;20086;-84
2021/12/07 02:56:08;;;;;;;17.05;9.15;;;1.70;99.90;;;;;;5049734;28;20126;-84
2021/12/07 02:58:35;;;;;;;14.98;9.00;;;1.70;99.90;;;;;;5049734;28;20050;-84
2021/12/07 03:01:11;;;;;;;15.25;8.90;;;1.70;99.90;;;;;;5050374;28;20157;-84
2021/12/07 03:03:52;;;;;;;14.20;8.65;;;2.20;99.90;;;;;;5048812;28;20044;-83
2021/12/07 03:06:26;;;;;;;15.68;9.85;;;1.80;99.90;;;;;;5050505;28;20067;-82
2021/12/07 03:28:03;;;;;;;15.95;9.88;;;2.10;99.90;;;;;;5048858;28;20135;-83
2021/12/07 03:30:29;;;;;;;15.82;9.30;;;1.80;99.90;;;;;;5048827;28;20557;-83
2021/12/07 03:32:54;;;;;;;13.73;8.02;;;1.70;99.90;;;;;;5048634;28;20040;-83
2021/12/07 03:35:20;;;;;;;14.00;8.68;;;2.10;99.90;;;;;;5049985;28;20090;-83
2021/12/07 03:37:46;;;;;;;12.88;8.18;;;1.70;99.90;;;;;;5048075;28;20432;-83
2021/12/07 03:40:13;;;;;;;13.18;8.10;;;1.70;99.90;;;;;;5049952;28;20062;-83
2021/12/07 03:42:39;;;;;;;13.68;7.28;;;1.70;99.90;;;;;;5048426;28;20044;-82
2021/12/07 03:45:07;;;;;;;15.45;7.82;;;1.70;99.90;;;;;;5049459;28;20546;-83
2021/12/07 03:47:33;;;;;;;14.55;8.70;;;1.70;99.90;;;;;;5032854;28;20032;-83
2021/12/07 03:49:59;;;;;;;13.05;8.15;;;1.70;99.90;;;;;;5031867;28;20483;-83
2021/12/07 03:52:25;;;;;;;16.73;8.77;;;1.70;99.90;;;;;;5016362;28;20051;-83
2021/12/07 03:54:51;;;;;;;13.43;8.07;;;1.70;99.90;;;;;;5048553;28;20105;-84
2021/12/07 03:57:16;;;;;;;13.70;8.07;;;4.00;99.90;;;;;;5050785;28;20044;-85
2021/12/07 03:59:42;;;;;;;13.02;7.45;;;2.80;99.90;;;;;;5049487;28;20094;-85
2021/12/07 04:02:08;;;;;;;14.73;7.82;;;1.70;99.90;;;;;;5050990;28;20527;-84
2021/12/07 04:04:35;;;;;;;14.30;8.25;;;1.70;99.90;;;;;;5067942;28;20048;-83
2021/12/07 04:07:01;;;;;;;13.73;8.00;;;3.80;99.90;;;;;;5049608;28;20071;-84
2021/12/07 04:09:26;;;;;;;11.77;7.72;;;1.70;99.90;;;;;;5049440;28;20484;-84
2021/12/07 04:11:54;;;;;;;12.98;8.20;;;1.70;99.90;;;;;;5047150;28;20154;-84
2021/12/07 04:14:20;;;;;;;13.27;7.57;;;1.70;99.90;;;;;;5067340;28;20059;-84
2021/12/07 04:16:45;;;;;;;12.07;7.40;;;1.60;99.90;;;;;;5047649;28;20041;-84
2021/12/07 04:19:11;;;;;;;15.80;7.90;;;2.30;99.90;;;;;;5049091;28;20041;-83
2021/12/07 04:21:37;;;;;;;11.52;7.50;;;1.60;99.90;;;;;;5031895;28;20542;-83
2021/12/07 04:24:03;;;;;;;13.70;8.35;;;1.50;99.90;;;;;;5031122;28;20377;-82
2021/12/07 04:26:31;;;;;;;11.98;7.63;;;1.50;99.90;;;;;;5048846;28;20052;-82
2021/12/07 04:28:56;;;;;;;12.80;7.90;;;1.50;99.90;;;;;;5030469;28;20098;-82
2021/12/07 04:31:22;;;;;;;14.88;8.68;;;1.50;99.90;;;;;;5066479;28;20040;-82
2021/12/07 04:33:48;;;;;;;13.85;7.78;;;1.50;99.90;;;;;;5047030;28;20252;-82
2021/12/07 04:36:14;;;;;;;11.85;7.43;;;1.50;99.90;;;;;;5048843;28;20044;-83
2021/12/07 04:38:40;;;;;;;13.07;6.93;;;1.50;99.90;;;;;;5031095;28;20044;-83
2021/12/07 04:41:06;;;;;;;12.00;7.28;;;2.50;99.90;;;;;;5047088;28;20044;-83
2021/12/07 04:43:34;;;;;;;12.77;7.13;;;1.50;99.90;;;;;;5065881;28;20059;-83
2021/12/07 04:48:53;;;;;;;11.30;7.28;;;1.40;99.90;;;;;;5066127;28;20063;-83
2021/12/07 04:59:28;;;;;;;11.75;6.43;;;1.40;99.90;;;;;;5033121;28;20143;-82
2021/12/07 05:01:53;;;;;;;9.55;5.93;;;1.60;99.90;;;;;;5048731;28;20550;-82
2021/12/07 05:04:24;;;;;;;10.15;6.65;;;1.40;99.90;;;;;;5047366;28;20127;-82
2021/12/07 05:06:55;;;;;;;12.50;6.50;;;1.40;99.90;;;;;;5047095;28;20130;-82
2021/12/07 05:14:26;;;;;;;13.77;6.55;;;1.40;99.90;;;;;;5047913;28;20128;-83
2021/12/07 05:25:31;;;;;;;10.60;6.35;;;1.50;99.90;;;;;;5046168;28;20079;-83
2021/12/07 05:38:50;;;;;;;10.27;6.07;;;1.60;99.90;;;;;;5065167;28;20131;-82
2021/12/07 05:41:16;;;;;;;9.10;5.47;;;1.60;99.90;;;;;;5046264;28;20084;-83
2021/12/07 05:43:42;;;;;;;10.80;6.10;;;1.60;99.90;;;;;;5047723;28;20044;-82
2021/12/07 05:46:08;;;;;;;11.07;6.30;;;1.70;99.90;;;;;;5064299;28;20048;-82
2021/12/07 05:48:34;;;;;;;11.25;5.95;;;1.60;99.90;;;;;;5065708;28;20518;-82
2021/12/07 05:51:00;;;;;;;9.75;5.60;;;1.60;99.90;;;;;;5064221;28;20106;-82
2021/12/07 05:53:26;;;;;;;10.95;5.30;;;1.60;99.90;;;;;;5046550;28;20538;-82
2021/12/07 05:55:51;;;;;;;11.27;5.90;;;1.60;99.90;;;;;;5065029;28;20088;-84
2021/12/07 05:58:19;;;;;;;9.95;5.68;;;1.60;99.90;;;;;;5046764;28;20040;-83
2021/12/07 06:00:46;;;;;;;12.35;5.82;;;1.80;99.90;;;;;;5047834;28;20044;-83
2021/12/07 06:03:13;;;;;;;10.82;5.75;;;3.00;99.90;;;;;;5045721;28;20044;-83
2021/12/07 06:05:41;;;;;;;12.45;5.55;;;1.60;99.90;;;;;;5047886;28;20404;-82
2021/12/07 06:08:07;;;;;;;7.22;4.35;;;1.70;99.90;;;;;;5064250;28;20044;-82
2021/12/07 06:10:34;;;;;;;10.85;5.38;;;2.50;99.90;;;;;;5065887;28;20091;-83
2021/12/07 06:13:01;;;;;;;8.80;4.85;;;1.80;99.90;;;;;;5065263;28;20044;-83
2021/12/07 06:15:31;;;;;;;9.15;5.00;;;1.80;99.90;;;;;;5046702;28;20492;-82
2021/12/07 06:17:57;;;;;;;13.13;5.07;;;1.90;99.90;;;;;;5065537;28;20045;-84
2021/12/07 06:20:23;;;;;;;12.57;3.85;;;3.60;99.90;;;;;;5029331;28;20071;-83
2021/12/07 06:22:48;;;;;;;11.50;4.03;;;2.00;99.90;;;;;;5031383;28;20288;-83
2021/12/07 06:25:15;;;;;;;9.43;4.22;;;2.00;99.90;;;;;;5064076;28;20076;-84
2021/12/07 06:27:42;;;;;;;17.10;4.18;;;2.90;99.90;;;;;;5029877;28;20131;-86
2021/12/07 06:30:09;;;;;;;12.88;4.55;;;2.20;99.90;;;;;;5029766;28;20086;-86
2021/12/07 06:32:35;;;;;;;14.13;5.35;;;2.10;99.90;;;;;;5012749;28;20051;-85
2021/12/07 06:35:02;;;;;;;7.72;4.63;;;2.00;99.90;;;;;;5029912;28;20478;-85
2021/12/07 06:37:27;;;;;;;8.48;4.85;;;3.40;99.90;;;;;;5045124;28;20102;-85
2021/12/07 06:39:53;;;;;;;13.05;4.70;;;2.00;99.90;;;;;;5047025;28;20036;-85
2021/12/07 06:42:19;;;;;;;7.70;4.55;;;2.00;99.90;;;;;;5045565;28;20087;-85
2021/12/07 06:44:45;;;;;;;13.57;4.40;;;2.00;99.90;;;;;;5029735;28;20044;-85
2021/12/07 06:47:10;;;;;;;9.88;4.13;;;2.10;99.90;;;;;;5064219;28;20041;-86
2021/12/07 06:49:37;;;;;;;10.35;4.47;;;2.00;99.90;;;;;;5029221;28;20403;-85
2021/12/07 06:52:04;;;;;;;8.38;4.50;;;3.00;99.90;;;;;;5030318;28;20045;-85
2021/12/07 06:54:30;;;;;;;13.23;4.75;;;2.00;99.90;;;;;;5044820;28;20052;-86
2021/12/07 06:56:55;;;;;;;9.07;4.65;;;2.00;99.90;;;;;;5013059;28;20091;-86
2021/12/07 06:59:21;;;;;;;14.05;4.70;;;3.00;99.90;;;;;;5012124;28;20040;-87
2021/12/07 07:01:48;;;;;;;9.43;4.93;;;2.00;99.90;;;;;;5029681;28;20045;-87
2021/12/07 07:04:14;;;;;;;9.02;4.50;;;2.00;99.90;;;;;;5066322;28;20226;-86
2021/12/07 07:06:43;;;;;;;9.05;4.65;;;2.00;99.90;;;;;;5049897;28;20403;-85
2021/12/07 07:09:10;;;;;;;12.20;4.80;;;2.00;99.90;;;;;;5033350;28;20483;-86
2021/12/07 07:11:36;;;;;;;9.07;4.95;;;3.30;99.90;;;;;;5031560;28;20465;-86
2021/12/07 07:14:03;;;;;;;8.55;4.15;;;2.00;99.90;;;;;;5050805;28;20048;-84
2021/12/07 07:16:30;;;;;;;11.60;5.10;;;1.50;99.90;;;;;;5049089;28;20111;-85
2021/12/07 07:18:57;;;;;;;10.25;4.50;;;2.10;99.90;;;;;;5049484;28;20104;-85
2021/12/07 07:21:23;;;;;;;10.30;4.53;;;2.10;99.90;;;;;;5031303;28;20060;-85
2021/12/07 07:23:51;;;;;;;9.23;4.57;;;2.10;99.90;;;;;;5032522;28;20040;-85
2021/12/07 07:26:17;;;;;;;8.15;3.60;;;2.70;99.90;;;;;;5049526;28;20484;-84
2021/12/07 07:28:43;;;;;;;12.88;4.05;;;2.20;99.90;;;;;;5047939;28;20060;-84
2021/12/07 07:31:10;;;;;;;11.85;4.32;;;2.20;99.90;;;;;;5033583;28;20133;-85
2021/12/07 07:33:36;;;;;;;12.23;4.18;;;2.30;99.90;;;;;;5048441;28;20048;-84
2021/12/07 07:36:02;;;;;;;8.65;4.95;;;1.90;99.90;;;;;;5033242;28;20051;-84
2021/12/07 07:38:28;;;;;;;10.85;4.60;;;1.20;99.90;;;;;;5048961;28;20044;-84
2021/12/07 07:40:54;;;;;;;10.85;4.32;;;2.30;99.90;;;;;;5048918;28;20060;-83
2021/12/07 07:43:19;;;;;;;8.13;5.07;;;2.30;99.90;;;;;;5032759;28;20043;-84
2021/12/07 07:45:49;;;;;;;8.60;4.10;;;3.10;99.90;;;;;;5047940;28;20048;-84
2021/12/07 07:48:16;;;;;;;7.75;3.50;;;2.30;99.90;;;;;;5049783;28;20137;-84
2021/12/07 07:50:43;;;;;;;10.35;4.13;;;2.20;99.90;;;;;;5031308;28;20087;-84
2021/12/07 07:53:09;;;;;;;8.85;4.35;;;2.20;99.90;;;;;;5047668;28;20128;-83
2021/12/07 07:55:37;;;;;;;10.77;4.72;;;2.20;99.90;;;;;;5030597;28;20123;-84
2021/12/07 07:58:06;;;;;;;10.85;4.25;;;2.20;99.90;;;;;;5031787;28;20048;-84
2021/12/07 08:00:33;;;;;;;13.85;4.18;;;2.20;99.90;;;;;;5032147;28;20492;-84
2021/12/07 08:02:58;;;;;;;8.85;3.60;;;3.70;99.90;;;;;;5047704;28;20086;-83
2021/12/07 08:05:25;;;;;;;6.22;3.72;;;2.20;99.90;;;;;;5032595;28;20052;-84
2021/12/07 08:07:51;;;;;;;11.27;4.15;;;2.10;99.90;;;;;;5031804;28;20049;-84
2021/12/07 08:10:22;;;;;;;16.00;4.55;;;3.10;99.90;;;;;;5034809;28;20111;-84
2021/12/07 08:12:51;;;;;;;11.07;4.07;;;2.70;99.90;;;;;;5051272;28;20547;-84
2021/12/07 08:15:22;;;;;;;8.43;3.95;;;2.10;99.90;;;;;;5052310;28;20045;-85
2021/12/07 08:17:48;;;;;;;5.60;3.03;;;2.10;99.90;;;;;;5020086;28;20055;-86
2021/12/07 08:20:14;;;;;;;10.63;4.10;;;2.10;99.90;;;;;;5050394;28;20056;-85
2021/12/07 08:22:40;;;;;;;11.02;3.97;;;2.80;99.90;;;;;;5036853;28;20044;-84
2021/12/07 08:25:09;;;;;;;10.30;3.65;;;2.10;99.90;;;;;;5051407;28;20171;-84
2021/12/07 08:27:35;;;;;;;9.02;4.00;;;3.20;99.90;;;;;;5051600;28;20469;-83
2021/12/07 08:30:07;;;;;;;6.90;4.15;;;4.20;99.90;;;;;;5033698;28;20098;-83
2021/12/07 08:32:33;;;;;;;11.68;4.15;;;2.20;99.90;;;;;;5048906;28;20119;-83
2021/12/07 08:34:59;;;;;;;17.17;4.20;;;3.80;99.90;;;;;;5067808;28;20534;-84
2021/12/07 08:37:25;;;;;;;18.23;4.22;;;4.10;99.90;;;;;;5032608;28;20131;-84
2021/12/07 08:40:04;;;;;;;13.95;4.60;;;1.80;99.90;;;;;;5067967;28;20052;-87
2021/12/07 08:42:30;;;;;;;10.48;3.70;;;3.70;99.90;;;;;;5019174;28;20047;-83
2021/12/07 08:44:56;;;;;;;8.30;3.25;;;3.90;99.90;;;;;;5034161;28;20041;-83
2021/12/07 08:47:22;;;;;;;12.30;5.10;;;3.40;99.90;;;;;;5034156;28;20054;-83
2021/12/07 08:49:49;;;;;;;7.40;3.78;;;2.40;99.90;;;;;;5031215;28;20152;-83
2021/12/07 08:52:15;;;;;;;11.45;4.07;;;2.40;99.90;;;;;;5068439;28;20051;-84
2021/12/07 09:00:07;;;;;;;9.70;4.45;;;3.60;99.90;;;;;;5050487;28;20071;-84
2021/12/07 09:02:34;;;;;;;9.98;4.55;;;2.50;99.90;;;;;;5018248;28;20392;-85
2021/12/07 09:05:00;;;;;;;8.02;3.78;;;2.50;99.90;;;;;;5034916;28;20096;-84
2021/12/07 09:07:28;;;;;;;11.68;4.88;;;4.00;99.90;;;;;;5032933;28;20048;-84
2021/12/07 09:09:55;;;;;;;9.85;4.68;;;2.70;99.90;;;;;;5050523;28;20055;-84
2021/12/07 09:12:21;;;;;;;7.95;3.13;;;2.60;99.90;;;;;;5048895;28;20055;-85
2021/12/07 09:14:48;;;;;;;12.23;3.60;;;2.70;99.90;;;;;;5068502;28;20483;-85
2021/12/07 09:17:15;;;;;;;9.18;3.90;;;2.80;99.90;;;;;;5050449;28;20044;-85
2021/12/07 09:19:41;;;;;;;11.32;3.22;;;2.80;99.90;;;;;;5034003;28;20068;-85
2021/12/07 09:22:11;;;;;;;8.68;2.83;;;2.90;99.90;;;;;;5050345;28;20051;-86
2021/12/07 09:24:43;;;;;;;13.93;3.35;;;3.00;99.90;;;;;;5051015;28;20078;-84
2021/12/07 09:27:15;;;;;;;11.68;3.70;;;3.10;99.90;;;;;;5019175;28;20447;-84
2021/12/07 09:29:41;;;;;;;7.53;2.80;;;3.20;99.90;;;;;;5067154;28;20121;-85
2021/12/07 09:32:07;;;;;;;12.48;2.90;;;3.20;99.90;;;;;;5033607;28;20048;-83
2021/12/07 09:34:35;;;;;;;7.45;3.15;;;3.40;99.90;;;;;;5031963;28;20093;-83
2021/12/07 09:37:01;;;;;;;10.07;3.35;;;3.50;99.90;;;;;;5031240;28;20080;-85
2021/12/07 09:39:27;;;;;;;9.23;2.63;;;5.30;99.90;;;;;;5049444;28;20052;-85
2021/12/07 09:41:53;;;;;;;12.10;2.97;;;3.60;99.90;;;;;;5031457;28;20111;-84
2021/12/07 09:44:19;;;;;;;11.88;2.95;;;5.70;99.90;;;;;;5049434;28;20041;-85
2021/12/07 09:46:45;;;;;;;12.80;3.97;;;3.80;99.90;;;;;;5047585;28;20051;-85
2021/12/07 09:49:11;;;;;;;8.98;3.40;;;3.90;99.90;;;;;;5030999;28;20049;-84
2021/12/07 09:51:39;;;;;;;6.25;3.03;;;4.00;99.90;;;;;;5050044;28;20041;-84
2021/12/07 09:54:08;;;;;;;13.30;2.47;;;5.90;99.90;;;;;;5049519;28;20387;-84
2021/12/07 09:56:34;;;;;;;13.48;3.58;;;5.10;99.90;;;;;;5049618;28;20045;-84
2021/12/07 09:59:01;;;;;;;9.63;3.25;;;6.10;99.90;;;;;;5046843;28;20049;-85
2021/12/07 10:01:28;;;;;;;9.13;3.25;;;2.90;99.90;;;;;;5049915;28;20542;-85
2021/12/07 10:03:55;;;;;;;11.52;2.67;;;4.30;99.90;;;;;;5064174;28;20037;-84
2021/12/07 10:06:28;;;;;;;10.20;2.43;;;4.40;99.90;;;;;;5033742;28;20044;-85
2021/12/07 10:08:56;;;;;;;7.43;2.53;;;6.70;99.90;;;;;;5032091;28;20051;-85
2021/12/07 10:11:23;;;;;;;13.98;2.92;;;4.60;99.90;;;;;;5030675;28;20040;-84
2021/12/07 10:13:51;;;;;;;12.38;3.28;;;4.60;99.90;;;;;;5028771;28;20049;-83
2021/12/07 10:16:18;;;;;;;6.88;2.53;;;5.30;99.90;;;;;;5044859;28;20098;-84
2021/12/07 10:18:45;;;;;;;12.07;2.90;;;5.50;99.90;;;;;;5012543;28;20041;-85
2021/12/07 10:21:43;;;;;;;18.30;3.65;;;4.80;99.90;;;;;;5027375;28;20048;-84
2021/12/07 10:24:17;;;;;;;6.93;3.03;;;4.80;99.90;;;;;;5048633;28;20131;-84
2021/12/07 10:26:47;;;;;;;10.70;2.88;;;4.80;99.90;;;;;;5046202;28;20094;-86
2021/12/07 10:29:16;;;;;;;17.58;3.25;;;5.10;99.90;;;;;;5045389;28;20051;-83
2021/12/07 10:31:56;;;;;;;11.20;3.15;;;6.10;99.90;;;;;;5030711;28;20141;-84
2021/12/07 10:34:25;;;;;;;4.70;2.00;;;4.80;99.90;;;;;;5045903;28;20055;-85
2021/12/07 10:36:55;;;;;;;7.05;2.65;;;5.80;99.90;;;;;;5029298;28;20447;-84
2021/12/07 10:39:25;;;;;;;7.45;2.15;;;4.80;99.90;;;;;;5048835;28;20040;-85
2021/12/07 10:42:01;;;;;;;9.18;3.55;;;4.90;99.90;;;;;;5048979;28;20408;-84
2021/12/07 10:44:32;;;;;;;6.80;2.60;;;5.00;99.90;;;;;;5050062;28;20049;-84
2021/12/07 10:47:20;;;;;;;10.75;2.20;;;5.00;99.90;;;;;;5045037;28;20144;-84
2021/12/07 10:49:52;;;;;;;7.53;2.13;;;7.20;99.90;;;;;;5045091;28;20037;-85
2021/12/07 10:52:42;;;;;;;5.25;2.03;;;5.10;99.90;;;;;;5048233;28;20083;-85
2021/12/07 10:55:24;;;;;;;5.07;1.80;;;5.10;99.90;;;;;;5045643;28;20063;-85
2021/12/07 10:57:58;;;;;;;4.93;2.25;;;5.20;99.90;;;;;;5047924;28;20048;-84
2021/12/07 11:00:36;;;;;;;8.52;2.53;;;5.30;99.90;;;;;;5048588;28;20057;-84
2021/12/07 11:03:05;;;;;;;4.60;1.67;;;5.50;99.90;;;;;;5047497;28;20053;-86
2021/12/07 11:05:40;;;;;;;14.77;2.45;;;4.60;99.90;;;;;;5030838;28;20049;-85
2021/12/07 11:08:08;;;;;;;11.20;2.67;;;5.60;99.90;;;;;;5027772;28;20091;-84
2021/12/07 11:10:40;;;;;;;7.20;2.70;;;7.50;99.90;;;;;;5030287;28;20055;-85
2021/12/07 11:13:15;;;;;;;7.93;2.30;;;5.70;99.90;;;;;;5046503;28;20057;-87
2021/12/07 11:15:52;;;;;;;4.45;2.03;;;5.80;99.90;;;;;;5048653;28;20505;-85
2021/12/07 11:18:39;;;;;;;12.18;2.33;;;6.90;99.90;;;;;;5049178;28;20370;-85
2021/12/07 11:21:17;;;;;;;9.93;2.67;;;5.80;99.90;;;;;;5053447;28;20053;-85
2021/12/07 11:23:55;;;;;;;10.00;1.80;;;5.90;99.90;;;;;;5032184;28;20060;-86
2021/12/07 11:32:06;;;;;;;;;;;;;;;;;;;;;
2021/12/07 11:35:45;;;;;;;7.85;2.75;;;6.90;99.90;;;;;;5046743;28;20053;-85
2021/12/07 11:38:11;;;;;;;13.00;2.80;;;4.30;99.90;;;;;;5005911;28;20593;-83
2021/12/07 11:40:38;;;;;;;8.07;2.63;;;8.00;99.90;;;;;;5024488;28;20556;-83
2021/12/07 11:43:18;;;;;;;16.65;2.55;;;5.90;99.90;;;;;;5025730;28;20049;-83
2021/12/07 11:45:45;;;;;;;9.05;2.38;;;6.00;99.90;;;;;;5045861;28;20056;-82
2021/12/07 11:48:12;;;;;;;7.25;2.00;;;6.10;99.90;;;;;;5028359;28;20088;-83
2021/12/07 11:50:49;;;;;;;10.05;2.38;;;6.40;99.90;;;;;;5044714;28;20116;-81
2021/12/07 11:53:22;;;;;;;12.30;3.17;;;6.10;99.90;;;;;;5047540;28;20228;-83
2021/12/07 11:55:54;;;;;;;9.07;2.42;;;7.00;99.90;;;;;;5044928;28;20543;-84
2021/12/07 11:58:20;;;;;;;11.88;2.47;;;6.20;99.90;;;;;;5046695;28;20167;-84
2021/12/07 12:00:50;;;;;;;7.60;2.05;;;6.40;99.90;;;;;;5046018;28;20501;-83
2021/12/07 12:03:19;;;;;;;15.57;2.38;;;7.40;99.90;;;;;;5046410;28;20325;-85
2021/12/07 12:05:47;;;;;;;7.28;2.22;;;6.20;99.90;;;;;;5029068;28;20056;-83
2021/12/07 12:08:16;;;;;;;8.63;2.42;;;7.40;99.90;;;;;;5044560;28;20045;-84
2021/12/07 12:10:47;;;;;;;7.88;2.03;;;6.30;99.90;;;;;;5045504;28;20041;-84
2021/12/07 12:13:28;;;;;;;6.20;2.50;;;8.20;99.90;;;;;;5045808;28;20081;-84
2021/12/07 12:16:00;;;;;;;6.85;2.17;;;6.50;99.90;;;;;;5028428;28;20515;-84
2021/12/07 12:19:07;;;;;;;12.87;2.80;;;6.40;99.90;;;;;;5028257;28;20045;-84
2021/12/07 12:22:04;;;;;;;11.90;2.28;;;6.40;99.90;;;;;;5023313;28;20526;-83
2021/12/07 12:24:33;;;;;;;7.57;2.00;;;6.40;99.90;;;;;;4996307;28;20425;-83
2021/12/07 12:27:27;;;;;;;13.15;2.13;;;6.40;99.90;;;;;;5043885;28;20041;-84
2021/12/07 12:29:55;;;;;;;8.60;1.70;;;6.50;99.90;;;;;;5045008;28;20045;-84
2021/12/07 12:32:37;;;;;;;14.32;1.83;;;6.70;99.90;;;;;;5044516;28;20512;-84
2021/12/07 12:35:09;;;;;;;12.95;2.67;;;6.50;99.90;;;;;;5045948;28;20053;-84
2021/12/07 12:37:36;;;;;;;5.15;1.67;;;6.50;99.90;;;;;;5045640;28;20056;-83
2021/12/07 12:40:06;;;;;;;18.05;1.92;;;6.50;99.90;;;;;;5042879;28;20037;-83
2021/12/07 12:42:39;;;;;;;15.43;2.45;;;6.50;99.90;;;;;;5044733;28;20060;-84
2021/12/07 12:45:33;;;;;;;;;;;6.50;99.90;;;;;;5045608;28;20056;-83
2021/12/07 12:48:12;;;;;;;7.72;2.42;;;6.00;99.90;;;;;;5041082;28;19921;-83
2021/12/07 12:50:46;;;;;;;11.60;2.33;;;6.50;99.90;;;;;;5043744;28;20049;-84
2021/12/07 12:53:17;;;;;;;7.63;1.65;;;6.40;99.90;;;;;;5027327;28;20049;-83
2021/12/07 12:55:58;;;;;;;7.85;2.58;;;8.10;99.90;;;;;;5043958;28;20457;-83
2021/12/07 12:58:38;;;;;;;7.53;1.77;;;8.10;99.90;;;;;;5044011;28;20041;-83
2021/12/07 13:01:29;;;;;;;11.02;1.98;;;6.50;99.90;;;;;;5040150;28;20057;-84
2021/12/07 13:04:04;;;;;;;7.63;2.05;;;6.30;99.90;;;;;;5043548;28;20080;-84
2021/12/07 13:06:53;;;;;;;8.57;1.90;;;4.70;99.90;;;;;;5025445;28;20095;-83
2021/12/07 13:09:22;;;;;;;8.50;2.10;;;6.20;99.90;;;;;;5042851;28;20056;-84
2021/12/07 13:12:00;;;;;;;10.50;1.98;;;6.20;99.90;;;;;;5026855;28;20033;-83
2021/12/07 13:14:26;;;;;;;9.20;2.45;;;6.20;99.90;;;;;;5060176;28;20856;-83
2021/12/07 13:16:59;;;;;;;19.23;2.72;;;8.00;99.90;;;;;;5045233;28;20072;-86
2021/12/07 13:19:44;;;;;;;;;;;;;;;;;;;;;
2021/12/07 13:22:55;;;;;;;8.07;2.10;;;7.80;99.90;;;;;;5044878;28;20058;-83
2021/12/07 13:25:40;;;;;;;10.73;2.28;;;6.20;99.90;;;;;;5021890;28;20052;-86
2021/12/07 13:28:25;;;;;;;10.07;1.75;;;6.10;99.90;;;;;;5065434;28;20111;-84
2021/12/07 13:30:52;;;;;;;9.88;2.33;;;7.70;99.90;;;;;;5031542;28;20127;-86
2021/12/07 13:33:22;;;;;;;10.00;1.65;;;6.10;99.90;;;;;;5050636;28;20127;-87
2021/12/07 13:35:51;;;;;;;7.68;2.05;;;6.10;99.90;;;;;;5051586;28;20518;-88
2021/12/07 13:38:27;;;;;;;7.35;2.28;;;7.80;99.90;;;;;;5015608;28;20041;-86
2021/12/07 13:41:13;;;;;;;14.68;2.22;;;8.10;99.90;;;;;;5033197;28;20087;-86
2021/12/07 13:43:39;;;;;;;6.43;1.98;;;6.10;99.90;;;;;;5049847;28;20048;-86
2021/12/07 13:46:14;;;;;;;12.18;2.35;;;4.40;99.90;;;;;;5065641;28;20044;-87
2021/12/07 13:49:01;;;;;;;8.75;2.45;;;6.10;99.90;;;;;;5032345;28;20076;-87
2021/12/07 13:51:28;;;;;;;8.55;2.20;;;6.10;99.90;;;;;;5048890;28;20488;-86
2021/12/07 13:54:06;;;;;;;;;;;;;;;;;;;;;
2021/12/07 13:56:38;;;;;;;8.38;2.50;;;6.00;99.90;;;;;;5048009;28;20315;-85
2021/12/07 13:59:14;;;;;;;15.23;2.63;;;6.00;99.90;;;;;;5066026;28;20348;-84
2021/12/07 14:01:54;;;;;;;10.95;2.25;;;7.90;99.90;;;;;;5031838;28;20049;-87
2021/12/07 14:04:25;;;;;;;13.18;2.75;;;7.50;99.90;;;;;;5031413;28;20063;-86
2021/12/07 14:11:06;;;;;;;7.93;2.05;;;5.90;99.90;;;;;;5039742;28;20055;-87
2021/12/07 14:14:15;;;;;;;6.47;2.22;;;5.80;99.90;;;;;;5067674;28;20122;-86
2021/12/07 14:20:49;;;;;;;14.60;3.03;;;5.80;99.90;;;;;;5060055;28;20064;-86
2021/12/07 14:23:42;;;;;;;13.73;2.63;;;5.50;99.90;;;;;;5025019;28;20110;-86
2021/12/07 14:26:20;;;;;;;12.38;3.10;;;5.60;99.90;;;;;;5071725;28;20439;-86
2021/12/07 14:29:08;;;;;;;16.10;3.10;;;5.50;99.90;;;;;;5051785;28;20056;-86
2021/12/07 14:31:56;;;;;;;8.80;2.70;;;5.40;99.90;;;;;;5071551;28;20048;-87
2021/12/07 14:34:30;;;;;;;11.68;3.05;;;5.20;99.90;;;;;;5035745;28;20098;-87
2021/12/07 14:37:05;;;;;;;15.20;3.33;;;5.30;99.90;;;;;;5035058;28;20044;-86
2021/12/07 14:39:37;;;;;;;10.48;2.38;;;5.30;99.90;;;;;;5037019;28;20041;-87
2021/12/07 14:42:07;;;;;;;15.05;3.33;;;6.90;99.90;;;;;;5034661;28;20422;-86
2021/12/07 14:44:37;;;;;;;16.70;3.03;;;5.10;99.90;;;;;;5053421;28;20476;-87
2021/12/07 14:47:06;;;;;;;21.55;3.53;;;5.10;99.90;;;;;;5052441;28;20040;-86
2021/12/07 14:49:34;;;;;;;13.27;2.72;;;5.10;99.90;;;;;;5019597;28;20496;-86
2021/12/07 14:52:00;;;;;;;19.30;3.30;;;6.70;99.90;;;;;;5052277;28;20481;-86
2021/12/07 14:54:26;;;;;;;7.68;2.60;;;7.10;99.90;;;;;;5051452;28;20091;-86
2021/12/07 14:57:24;;;;;;;13.20;3.15;;;7.10;99.90;;;;;;5033464;28;20040;-86
2021/12/07 15:00:03;;;;;;;14.05;3.28;;;4.90;99.90;;;;;;5046526;28;20051;-85
2021/12/07 15:02:34;;;;;;;11.95;3.33;;;4.80;99.90;;;;;;5039574;28;20554;-87
2021/12/07 15:05:03;;;;;;;18.85;3.72;;;6.70;99.90;;;;;;5035815;28;20044;-86
2021/12/07 15:07:31;;;;;;;14.93;3.58;;;4.70;99.90;;;;;;5068172;28;20048;-87
2021/12/07 15:10:01;;;;;;;16.02;3.75;;;5.60;99.90;;;;;;5034382;28;20052;-86
2021/12/07 15:12:27;;;;;;;13.15;3.75;;;4.60;99.90;;;;;;5030611;28;20040;-85
2021/12/07 15:15:00;;;;;;;13.73;3.53;;;5.40;99.90;;;;;;5050352;28;20044;-86